Date,TemperatureHighF,TemperatureAvgF,TemperatureLowF,DewpointHighF,DewpointAvgF,DewpointLowF,HumidityHigh,HumidityAvg,HumidityLow,PressureMaxIn,PressureMinIn,WindSpeedMaxMPH,WindSpeedAvgMPH,GustSpeedMaxMPH,PrecipitationSumIn
2013-1-1,40,32,27,32,29,26,98,89,69,30.46,30.35,8,0,8,0.01
2013-1-2,42,31,24,32,27,22,97,85,64,30.35,30.20,8,0,8,0.00
2013-1-3,40,32,23,35,28,21,95,87,69,30.28,30.16,5,0,5,0.01
2013-1-4,52,43,36,46,41,35,100,91,79,30.34,30.18,8,0,8,0.00
2013-1-5,38,36,35,37,35,32,97,94,89,30.23,30.17,7,0,8,0.05
2013-1-6,47,42,37,44,40,36,98,94,84,30.26,30.11,14,1,14,0.09
2013-1-7,52,48,44,50,46,42,97,94,90,30.24,30.05,19,4,19,0.14
2013-1-8,55,50,46,50,48,45,97,91,83,30.24,29.93,21,4,22,0.01
2013-1-9,50,42,36,47,40,35,97,92,83,30.01,29.73,22,2,22,0.45
2013-1-10,40,37,35,39,36,34,97,96,92,30.14,30.01,8,1,8,0.11
2013-1-11,38,32,27,35,31,26,98,95,79,30.33,30.13,6,0,7,0.00
2013-1-12,36,28,22,32,27,21,97,95,84,30.43,30.32,6,0,6,0.01
2013-1-13,29,28,27,28,26,24,100,94,88,30.52,30.42,5,0,5,0.00
2013-1-14,35,31,27,32,29,26,96,93,88,30.59,30.52,7,1,7,0.00
2013-1-15,38,35,33,36,34,31,100,95,93,30.67,30.57,8,1,8,0.00
2013-1-16,35,34,33,34,33,32,98,97,95,30.66,30.51,6,0,6,0.00
2013-1-17,36,33,31,35,32,31,98,98,93,30.51,30.34,4,0,4,0.01
2013-1-18,33,31,29,32,30,29,100,98,98,30.35,30.30,4,0,4,0.00
2013-1-19,31,29,27,30,28,26,100,98,97,30.37,30.31,4,0,4,0.00
2013-1-20,30,28,25,30,27,24,98,98,96,30.39,30.27,5,0,5,0.01
2013-1-21,29,27,26,29,27,25,98,97,97,30.31,30.18,5,0,5,0.00
2013-1-22,34,28,24,33,28,23,99,98,96,30.19,29.97,4,0,4,0.00
2013-1-23,35,33,31,35,33,30,100,99,98,30.22,29.92,4,0,4,0.29
2013-1-24,45,36,33,45,36,32,100,99,99,30.24,30.13,6,0,6,0.27
2013-1-25,51,46,39,50,46,38,99,98,96,30.16,29.98,8,1,8,0.35
2013-1-26,45,41,37,43,40,36,98,95,86,30.12,29.97,10,2,11,0.34
2013-1-27,43,40,38,41,39,38,98,96,91,30.19,30.08,11,2,13,0.24
2013-1-28,43,41,39,42,40,38,98,97,96,30.26,30.12,10,2,12,0.59
2013-1-29,46,44,42,45,43,42,98,97,95,30.51,30.26,9,3,10,0.28
2013-1-30,48,45,42,47,44,42,99,97,95,30.52,30.47,12,3,14,0.18
2013-1-31,55,47,43,48,45,43,99,93,71,30.47,30.34,6,0,6,0.02
2013-2-1,55,45,36,49,43,35,98,92,76,30.36,30.25,11,1,11,0.00
2013-2-2,43,37,33,42,37,32,99,98,96,30.34,30.27,8,0,8,0.01
2013-2-3,48,43,35,45,42,35,99,95,88,30.35,30.24,6,0,6,0.01
2013-2-4,51,44,39,45,42,38,99,92,76,30.25,29.95,7,0,7,0.00
2013-2-5,50,46,44,46,43,42,97,91,82,30.09,29.95,15,3,16,0.49
2013-2-6,52,46,42,44,42,39,94,85,70,30.13,29.86,14,3,15,0.06
2013-2-7,47,41,34,42,38,33,97,91,71,30.15,29.96,16,1,16,0.20
2013-2-8,45,37,32,38,35,32,98,93,75,30.29,30.15,9,0,9,0.00
2013-2-9,44,40,35,41,38,34,98,94,85,30.32,30.28,7,1,7,0.07
2013-2-10,45,42,41,42,40,38,100,92,81,30.35,30.31,6,0,6,0.01
2013-2-11,46,43,40,43,40,38,96,90,79,30.42,30.32,8,1,8,0.02
2013-2-12,52,47,44,49,46,43,98,93,84,30.50,30.42,9,1,10,0.03
2013-2-13,51,48,46,48,46,42,95,91,86,30.52,30.44,12,2,12,0.00
2013-2-14,58,46,38,47,43,37,98,87,65,30.57,30.47,7,1,7,0.00
2013-2-15,59,45,38,49,42,37,100,91,66,30.48,30.22,8,1,8,0.00
2013-2-16,48,42,38,47,41,37,99,96,90,30.31,30.24,8,1,8,0.06
2013-2-17,47,40,35,39,36,32,98,85,58,30.31,30.10,6,0,6,0.01
2013-2-18,46,40,33,39,36,31,96,87,68,30.10,29.75,11,2,12,0.06
2013-2-19,53,42,36,43,39,35,97,87,61,30.01,29.68,9,0,10,0.04
2013-2-20,47,41,35,41,38,34,97,91,74,30.13,30.01,13,2,14,0.11
2013-2-21,44,41,37,41,39,36,97,93,87,30.24,30.13,13,3,14,0.07
2013-2-22,46,43,38,43,41,36,95,92,84,30.22,29.94,22,5,22,0.45
2013-2-23,46,40,34,41,38,33,97,92,78,30.47,30.12,9,2,10,0.10
2013-2-24,50,41,34,41,37,33,97,85,63,30.47,30.10,14,2,14,0.01
2013-2-25,50,43,35,42,39,33,95,88,65,30.42,30.07,16,3,18,0.15
2013-2-26,51,41,34,40,36,33,97,83,57,30.42,30.26,10,1,10,0.00
2013-2-27,52,46,40,46,42,37,94,86,73,30.33,30.23,13,1,13,0.02
2013-2-28,56,52,46,53,50,45,96,93,86,30.46,30.22,17,3,17,0.07
2013-3-1,61,54,49,53,50,48,96,87,69,30.47,30.32,13,2,13,0.01
2013-3-2,53,49,44,50,47,40,94,91,86,30.33,30.19,8,1,8,0.01
2013-3-3,50,42,34,40,35,31,96,79,51,30.33,30.23,14,1,14,0.00
2013-3-4,56,41,31,42,34,30,96,79,45,30.23,29.92,7,1,7,0.01
2013-3-5,50,42,36,45,40,33,97,92,79,29.92,29.62,10,1,11,0.19
2013-3-6,46,42,40,44,41,39,100,94,85,29.98,29.55,14,2,14,0.48
2013-3-7,56,44,33,42,38,32,98,81,52,30.06,29.98,11,1,11,0.00
2013-3-8,56,43,32,44,38,31,98,84,59,30.22,30.03,11,0,11,0.00
2013-3-9,61,43,30,43,36,29,97,80,40,30.51,30.22,8,1,8,0.01
2013-3-10,53,45,36,47,41,34,94,86,68,30.51,30.41,8,1,8,0.00
2013-3-11,57,50,46,51,48,44,96,91,78,30.43,30.25,0,0,0,0.02
2013-3-12,59,51,44,52,48,43,98,91,75,30.25,30.16,10,1,10,0.00
2013-3-13,65,54,46,53,48,45,96,82,53,30.24,30.09,9,0,9,0.00
2013-3-14,57,53,48,50,48,44,96,84,64,30.23,30.06,12,2,12,0.00
2013-3-15,64,56,51,51,49,46,94,81,55,30.24,30.16,8,1,9,0.00
2013-3-16,51,47,41,47,45,39,96,92,83,30.20,30.03,14,2,15,0.31
2013-3-17,49,42,37,41,38,35,95,87,64,30.34,30.20,11,1,11,0.01
2013-3-18,54,43,33,39,36,32,97,79,51,30.31,30.13,9,1,9,0.01
2013-3-19,50,43,37,49,40,35,98,90,75,30.13,29.68,6,0,7,0.49
2013-3-20,53,48,40,51,45,37,98,88,75,30.21,29.58,24,4,24,0.45
2013-3-21,48,42,38,40,37,35,94,85,68,30.34,30.21,12,2,12,0.08
2013-3-22,46,40,33,39,35,32,97,85,62,30.41,30.33,7,1,8,0.08
2013-3-23,50,41,34,38,34,29,100,80,49,30.40,30.27,8,1,10,0.00
2013-3-24,54,43,33,42,37,31,94,80,57,30.27,30.08,7,1,7,0.00
2013-3-25,57,47,37,46,40,35,93,78,54,30.09,29.92,6,0,6,0.00
2013-3-26,54,48,42,48,45,40,96,90,76,30.03,29.97,5,0,5,0.05
2013-3-27,62,50,39,51,46,38,98,86,59,30.00,29.90,13,1,14,0.03
2013-3-28,66,54,47,54,49,46,98,84,53,30.15,30.00,8,1,8,0.06
2013-3-29,68,56,48,54,51,47,97,83,59,30.20,30.12,7,0,7,0.00
2013-3-30,73,57,43,56,50,42,97,78,50,30.17,29.94,10,1,11,0.00
2013-3-31,72,58,46,56,51,45,97,78,52,30.02,29.91,12,1,12,0.00
2013-4-1,61,56,54,54,52,50,93,85,75,30.18,30.01,12,2,13,0.00
2013-4-2,67,56,50,53,50,47,95,81,53,30.22,30.12,10,2,10,0.00
2013-4-3,64,52,42,55,49,41,98,89,72,30.17,29.90,6,0,7,0.00
2013-4-4,61,56,53,57,53,49,96,90,77,29.91,29.70,17,3,18,0.14
2013-4-5,58,54,52,52,50,49,94,89,77,29.98,29.84,18,5,19,0.27
2013-4-6,56,51,47,50,48,45,96,90,71,30.02,29.71,19,4,21,1.23
2013-4-7,53,48,42,49,44,40,93,87,79,29.99,29.63,24,5,29,0.17
2013-4-8,52,46,41,46,42,39,96,87,74,30.30,29.99,9,1,9,0.03
2013-4-9,58,47,35,49,42,34,98,84,61,30.37,30.25,6,0,6,0.00
2013-4-10,61,51,45,53,47,40,98,84,60,30.35,30.18,18,2,18,0.03
2013-4-11,58,48,39,44,41,38,99,80,52,30.36,30.17,9,0,9,0.00
2013-4-12,54,45,36,48,42,34,97,87,72,30.17,29.90,13,2,13,0.10
2013-4-13,52,44,40,42,39,36,95,82,59,30.13,29.97,13,2,13,0.10
2013-4-14,50,44,41,44,41,39,97,90,74,30.06,29.95,10,2,10,0.42
2013-4-15,56,46,38,43,40,34,98,81,46,30.18,29.96,12,1,12,0.02
2013-4-16,59,47,37,47,41,36,98,82,49,30.40,30.18,10,1,11,0.09
2013-4-17,58,47,37,46,41,36,96,80,51,30.51,30.40,10,1,10,0.00
2013-4-18,62,52,44,50,45,41,92,77,57,30.49,30.33,9,1,9,0.01
2013-4-19,58,52,49,53,49,47,96,91,78,30.33,30.20,17,3,17,0.41
2013-4-20,61,52,44,48,46,41,95,80,56,30.36,30.26,9,1,9,0.00
2013-4-21,56,50,44,49,45,42,94,84,74,30.32,30.24,12,1,12,0.00
2013-4-22,66,52,41,46,39,31,94,66,33,30.40,30.30,20,3,20,0.00
2013-4-23,68,52,35,42,36,31,91,57,25,30.36,30.13,14,2,16,0.00
2013-4-24,74,57,41,44,39,34,83,54,27,30.23,29.99,14,2,15,0.00
2013-4-25,76,58,41,55,43,34,91,61,29,30.14,30.01,9,0,9,0.00
2013-4-26,78,60,44,56,48,38,95,67,24,30.24,30.14,8,1,8,0.00
2013-4-27,72,58,44,48,44,35,95,63,27,30.27,30.19,11,1,11,0.00
2013-4-28,66,57,51,50,48,45,90,73,52,30.29,30.12,13,3,13,0.02
2013-4-29,60,53,42,50,42,33,95,69,41,30.24,30.10,12,2,12,0.15
2013-4-30,57,45,33,41,36,31,96,72,45,30.44,30.24,7,1,7,0.00
2013-5-1,69,52,38,45,39,33,86,63,36,30.51,30.41,14,2,17,0.00
2013-5-2,78,61,42,47,41,36,83,51,24,30.42,30.21,11,2,12,0.00
2013-5-3,79,63,47,50,44,38,76,51,31,30.28,30.09,13,2,14,0.00
2013-5-4,83,68,53,52,42,33,77,43,18,30.10,29.85,17,2,17,0.00
2013-5-5,87,70,54,55,42,37,70,39,19,29.86,29.64,13,2,13,0.00
2013-5-6,81,63,51,56,50,46,87,65,34,29.91,29.75,15,2,15,0.00
2013-5-7,74,60,50,57,50,47,92,73,46,30.05,29.91,11,2,13,0.03
2013-5-8,68,56,46,56,50,44,96,82,62,30.15,30.05,9,1,9,0.00
2013-5-9,78,61,46,59,53,45,96,76,44,30.19,30.06,10,1,10,0.00
2013-5-10,80,65,50,64,55,47,94,73,45,30.20,30.09,7,1,7,0.02
2013-5-11,82,67,55,65,56,47,88,71,31,30.20,29.99,6,1,7,0.01
2013-5-12,72,64,59,61,58,55,91,81,62,30.13,30.06,9,1,10,0.02
2013-5-13,67,58,50,56,53,46,96,83,55,30.23,30.06,16,3,20,0.10
2013-5-14,68,56,47,49,44,38,92,68,35,30.23,30.09,8,1,10,0.00
2013-5-15,59,52,47,54,48,43,92,85,74,30.12,30.02,10,1,11,0.14
2013-5-16,59,55,51,54,53,49,96,92,77,30.02,29.95,11,1,11,0.43
2013-5-17,62,55,48,52,49,46,97,83,58,30.12,30.01,18,1,18,0.01
2013-5-18,58,54,51,54,50,48,94,88,78,30.29,30.11,9,2,9,0.09
2013-5-19,66,57,51,53,51,47,97,81,54,30.41,30.29,10,1,10,0.10
2013-5-20,72,56,45,54,47,39,94,74,40,30.34,29.92,8,1,8,0.00
2013-5-21,54,48,43,49,46,40,96,91,66,30.03,29.85,12,2,13,0.62
2013-5-22,49,45,41,48,43,39,98,93,90,30.03,29.97,17,5,17,0.34
2013-5-23,57,50,46,49,46,44,96,89,66,30.05,30.01,18,4,18,0.56
2013-5-24,59,52,48,50,48,46,97,86,67,30.10,30.00,17,3,17,0.08
2013-5-25,67,56,47,54,48,44,95,77,45,30.09,29.93,12,2,12,0.11
2013-5-26,62,56,52,54,52,48,96,85,70,30.05,29.96,16,3,16,0.21
2013-5-27,63,55,51,59,53,48,96,92,85,30.00,29.75,16,3,16,1.38
2013-5-28,63,56,52,53,50,47,96,82,57,29.95,29.77,14,3,14,0.18
2013-5-29,63,55,51,53,51,47,97,85,65,30.09,29.65,19,4,20,0.30
2013-5-30,63,55,49,51,48,46,93,79,60,30.27,30.08,13,2,13,0.02
2013-5-31,69,58,46,52,48,44,95,72,49,30.32,30.22,11,1,11,0.00
2013-6-1,76,60,46,61,52,44,96,75,44,30.24,30.01,9,1,10,0.00
2013-6-2,71,62,54,56,53,50,88,74,54,30.08,30.02,13,1,13,0.00
2013-6-3,75,61,48,58,52,47,95,76,48,30.10,30.01,13,2,15,0.00
2013-6-4,81,65,52,64,55,48,88,70,44,30.07,29.95,11,2,12,0.00
2013-6-5,83,69,54,63,57,52,95,67,37,30.07,29.94,10,1,10,0.00
2013-6-6,82,69,58,63,58,50,92,70,45,30.04,29.96,11,1,12,0.00
2013-6-7,82,66,52,62,52,41,89,63,29,30.12,30.03,8,1,9,0.00
2013-6-8,78,64,52,58,51,42,90,65,31,30.15,30.02,11,2,11,0.00
2013-6-9,74,62,51,54,50,47,87,68,43,30.09,29.95,15,2,15,0.00
2013-6-10,71,58,47,53,47,43,87,68,44,30.01,29.88,12,2,12,0.00
2013-6-11,64,57,52,52,48,45,84,72,54,30.16,29.99,11,1,12,0.00
2013-6-12,63,56,51,52,48,44,89,76,56,30.20,30.14,8,1,9,0.00
2013-6-13,61,54,50,55,51,47,96,91,78,30.31,30.19,13,2,13,0.58
2013-6-14,70,57,44,56,50,42,98,79,55,30.31,29.97,12,2,12,0.01
2013-6-15,77,62,49,59,53,47,96,74,38,30.02,29.90,9,1,9,0.00
2013-6-16,74,61,50,59,54,49,96,78,51,30.12,30.02,7,1,7,0.00
2013-6-17,75,62,51,57,52,48,94,74,45,30.12,29.94,17,2,17,0.00
2013-6-18,67,60,54,57,52,47,89,75,52,30.02,29.94,17,2,17,0.09
2013-6-19,64,57,50,54,51,48,94,82,64,30.12,29.97,16,3,16,0.02
2013-6-20,64,57,51,57,52,49,94,84,67,30.14,30.07,12,2,13,0.10
2013-6-21,70,61,53,55,52,49,94,74,48,30.17,30.10,7,1,7,0.00
2013-6-22,79,65,49,58,51,41,96,66,28,30.10,29.85,11,1,11,0.00
2013-6-23,71,64,58,63,59,50,96,84,55,29.86,29.64,12,1,12,0.16
2013-6-24,64,60,56,60,55,52,94,85,71,29.73,29.66,13,2,13,0.02
2013-6-25,66,61,58,61,58,55,97,89,73,29.87,29.68,12,1,13,0.29
2013-6-26,71,64,59,62,59,57,97,84,64,30.03,29.85,10,1,10,0.09
2013-6-27,81,70,60,65,61,58,94,76,54,30.14,30.00,13,1,13,0.00
2013-6-28,90,73,59,70,63,57,97,73,39,30.13,30.00,8,1,9,0.00
2013-6-29,87,73,61,68,62,57,91,70,41,30.10,29.94,8,1,8,0.00
2013-6-30,92,75,60,72,64,58,96,71,39,29.96,29.82,7,0,7,0.00
2013-7-1,90,76,64,74,66,60,92,73,51,29.99,29.89,7,1,7,0.00
2013-7-2,90,76,64,71,64,58,89,68,47,30.05,29.97,9,1,9,0.00
2013-7-3,85,70,60,60,54,43,81,60,24,30.11,30.00,12,2,12,0.00
2013-7-4,77,65,53,58,53,49,88,67,45,30.13,30.00,14,2,14,0.00
2013-7-5,74,64,56,58,53,50,83,68,50,30.06,29.92,10,1,10,0.00
2013-7-6,76,62,52,62,55,50,93,79,56,29.97,29.84,11,1,12,0.00
2013-7-7,80,66,53,64,57,51,95,75,53,29.97,29.85,13,1,13,0.00
2013-7-8,82,66,53,63,56,51,93,72,41,30.07,29.97,11,1,12,0.00
2013-7-9,88,72,56,65,60,54,94,68,37,30.06,29.94,10,1,10,0.00
2013-7-10,83,70,58,61,56,50,83,63,41,30.04,29.89,12,2,12,0.00
2013-7-11,76,62,52,54,49,46,82,65,36,30.07,29.93,13,2,13,0.00
2013-7-12,76,63,51,53,50,46,89,65,37,30.09,29.98,9,1,9,0.00
2013-7-13,81,64,51,54,49,42,86,60,28,30.14,30.00,15,2,15,0.00
2013-7-14,87,71,55,58,52,41,84,55,28,30.07,29.92,12,2,12,0.00
2013-7-15,85,71,56,57,51,41,74,51,33,29.99,29.77,13,2,15,0.00
2013-7-16,79,69,58,61,55,48,86,64,45,30.01,29.75,11,1,13,0.00
2013-7-17,80,66,60,60,56,54,86,70,44,30.15,30.01,10,2,10,0.00
2013-7-18,83,67,54,62,55,49,94,70,31,30.19,30.04,13,1,13,0.00
2013-7-19,84,67,54,65,58,52,92,73,48,30.12,29.97,13,2,13,0.00
2013-7-20,80,66,54,64,58,52,93,75,51,30.06,29.91,12,2,13,0.00
2013-7-21,84,68,53,64,57,50,94,71,42,29.98,29.86,12,2,12,0.00
2013-7-22,84,69,56,60,56,49,95,67,31,30.03,29.90,14,2,14,0.00
2013-7-23,90,72,55,67,60,52,92,67,35,30.01,29.90,12,1,12,0.00
2013-7-24,91,74,57,64,57,50,92,60,25,30.01,29.92,7,1,14,0.00
2013-7-25,90,74,57,61,55,44,93,55,22,30.05,29.96,13,1,14,0.00
2013-7-26,91,73,57,60,53,40,83,53,24,30.13,30.01,14,2,14,0.00
2013-7-27,82,66,54,57,50,46,79,58,31,30.16,29.97,12,1,12,0.00
2013-7-28,77,63,48,56,52,46,94,70,43,30.06,29.93,9,1,10,0.00
2013-7-29,78,64,52,58,54,49,91,70,43,30.03,29.92,9,1,10,0.00
2013-7-30,81,66,51,62,56,49,95,74,44,30.13,30.03,9,1,9,0.00
2013-7-31,78,64,56,63,58,53,94,79,52,30.10,30.00,7,1,7,0.00
2013-8-1,64,61,57,58,56,55,95,84,75,30.12,30.06,9,1,9,0.00
2013-8-2,75,64,58,59,55,53,91,74,52,30.15,30.07,10,1,10,0.00
2013-8-3,81,67,53,62,57,51,96,73,46,30.09,29.95,9,1,12,0.00
2013-8-4,89,72,56,64,60,54,94,68,36,30.00,29.86,8,1,8,0.00
2013-8-5,90,73,57,65,60,55,94,67,33,29.99,29.87,7,1,9,0.00
2013-8-6,89,69,57,59,54,42,92,64,23,29.97,29.90,9,0,9,0.00
2013-8-7,79,67,58,59,55,51,83,66,45,30.03,29.92,10,1,10,0.00
2013-8-8,82,67,56,65,58,53,92,74,47,30.05,29.87,11,2,11,0.00
2013-8-9,83,71,64,65,60,56,87,69,45,29.93,29.80,9,1,9,0.01
2013-8-10,77,66,60,67,60,57,94,82,52,30.04,29.89,11,2,11,0.06
2013-8-11,75,64,58,62,58,56,94,82,60,30.07,29.97,8,1,8,0.00
2013-8-12,75,64,58,63,58,53,95,82,60,30.07,30.00,7,0,8,0.00
2013-8-13,84,67,50,61,55,48,95,70,34,30.10,29.91,8,1,8,0.00
2013-8-14,83,69,57,62,57,48,93,68,29,29.96,29.90,12,1,12,0.00
2013-8-15,78,70,63,69,63,58,91,79,62,29.96,29.92,7,0,7,0.00
2013-8-16,84,71,63,68,64,55,93,79,54,30.04,29.95,8,0,8,0.01
2013-8-17,84,68,54,64,58,52,96,74,44,30.08,29.99,8,1,8,0.00
2013-8-18,84,69,54,63,59,53,96,73,40,30.12,30.00,8,1,9,0.00
2013-8-19,85,71,58,62,58,51,93,66,38,30.10,29.99,13,1,13,0.00
2013-8-20,83,68,54,58,53,46,87,61,30,30.11,29.95,16,2,16,0.00
2013-8-21,88,71,56,64,56,50,83,61,35,29.98,29.82,10,1,11,0.00
2013-8-22,81,70,59,67,60,56,91,72,47,29.90,29.82,10,1,11,0.05
2013-8-23,74,64,58,62,58,56,95,83,58,29.95,29.86,10,1,10,0.07
2013-8-24,76,65,56,60,57,54,95,77,51,29.91,29.83,6,0,6,0.00
2013-8-25,68,62,55,62,58,52,94,87,75,29.93,29.88,8,1,8,0.13
2013-8-26,78,66,59,61,57,50,95,76,39,29.96,29.89,21,2,21,0.01
2013-8-27,84,69,58,64,59,54,90,71,40,29.95,29.77,10,0,10,0.00
2013-8-28,78,67,61,64,61,59,96,83,58,29.89,29.83,0,0,0,0.03
2013-8-29,75,68,64,67,64,61,96,87,69,30.07,29.83,14,2,14,0.22
2013-8-30,82,70,62,64,62,58,96,77,47,30.14,30.01,7,0,7,0.00
2013-8-31,88,70,58,67,60,56,94,73,40,30.01,29.80,8,1,8,0.00
2013-9-1,84,68,57,61,56,52,92,68,37,29.90,29.78,11,2,11,0.00
2013-9-2,80,69,60,63,58,54,87,70,46,29.92,29.86,11,1,11,0.00
2013-9-3,80,68,60,60,57,53,94,71,43,29.99,29.92,10,1,10,0.01
2013-9-4,73,66,58,62,58,56,92,77,58,30.04,29.98,8,1,8,0.07
2013-9-5,68,61,58,62,59,57,97,93,77,30.06,29.97,14,1,14,3.08
2013-9-6,72,63,57,62,59,55,97,88,62,30.15,30.06,13,3,14,0.70
2013-9-7,77,63,54,64,58,53,98,85,56,30.09,29.94,9,1,9,0.01
2013-9-8,83,68,56,66,60,55,98,79,46,30.05,29.96,11,1,13,0.00
2013-9-9,82,75,66,66,64,62,86,69,53,30.01,29.88,13,2,13,0.00
2013-9-10,88,71,62,70,64,60,95,80,51,29.90,29.73,11,1,11,0.00
2013-9-11,92,72,59,68,62,57,97,74,39,29.94,29.78,8,1,9,0.00
2013-9-12,81,66,58,68,61,56,95,86,59,30.00,29.88,7,1,8,0.00
2013-9-13,75,65,58,66,61,57,97,88,71,29.96,29.81,8,1,8,0.00
2013-9-14,76,65,60,66,62,58,97,89,68,29.83,29.70,7,1,7,0.00
2013-9-15,66,62,59,61,59,58,97,93,83,29.91,29.72,9,2,10,0.05
2013-9-16,71,63,59,60,58,56,92,83,60,29.98,29.89,12,2,12,0.00
2013-9-17,68,61,57,58,55,50,95,81,56,30.03,29.85,9,1,9,0.01
2013-9-18,72,60,52,56,53,48,97,80,44,30.10,29.99,7,1,8,0.01
2013-9-19,78,59,45,60,52,44,97,78,42,29.99,29.78,8,0,8,0.01
2013-9-20,71,59,50,59,54,48,96,85,62,29.78,29.67,15,2,15,0.04
2013-9-21,65,60,55,57,56,52,97,87,65,29.81,29.68,12,2,13,0.01
2013-9-22,59,57,55,57,54,53,96,91,81,29.89,29.70,18,4,21,0.28
2013-9-23,62,57,54,57,55,52,96,93,81,30.00,29.89,15,2,15,0.50
2013-9-24,59,54,50,55,52,49,98,93,78,29.99,29.88,11,1,11,0.53
2013-9-25,58,52,49,54,50,48,97,93,75,30.05,29.88,8,1,9,0.11
2013-9-26,65,54,47,54,50,46,98,86,54,30.18,30.05,6,0,7,0.00
2013-9-27,58,52,46,54,50,45,98,93,78,30.19,29.95,11,3,16,0.24
2013-9-28,65,59,53,59,56,51,96,90,75,29.95,29.52,25,6,26,1.22
2013-9-29,58,54,53,56,52,50,96,93,88,29.72,29.44,21,6,22,1.27
2013-9-30,57,53,51,54,50,48,94,89,83,30.03,29.66,13,3,14,0.41
2013-10-1,58,52,46,52,49,45,97,91,70,30.21,30.00,11,2,11,0.32
2013-10-2,54,48,43,50,46,42,96,93,81,30.20,30.09,11,1,11,0.08
2013-10-3,59,48,42,50,45,41,100,90,61,30.42,30.19,10,1,10,0.01
2013-10-4,60,47,37,52,44,36,98,92,72,30.46,30.33,8,1,9,0.00
2013-10-5,68,51,38,54,46,37,100,87,52,30.34,30.15,6,0,6,0.01
2013-10-6,74,55,40,56,47,39,98,78,40,30.15,29.97,10,1,10,0.01
2013-10-7,60,54,50,53,50,48,96,87,68,30.17,30.00,12,2,12,0.08
2013-10-8,53,50,45,52,49,44,96,94,89,30.17,29.99,10,2,10,0.18
2013-10-9,58,48,41,49,45,40,98,90,69,30.10,29.98,10,1,11,0.01
2013-10-10,61,51,43,51,47,42,100,86,58,30.10,29.96,9,1,9,0.00
2013-10-11,58,51,43,48,46,42,96,82,59,30.15,30.09,5,0,5,0.00
2013-10-12,56,49,42,50,46,41,96,89,73,30.17,30.08,6,0,7,0.04
2013-10-13,59,48,40,50,45,39,97,89,69,30.30,30.16,9,1,9,0.00
2013-10-14,65,51,41,51,46,39,97,83,57,30.36,30.25,10,1,10,0.00
2013-10-15,67,51,38,48,43,37,96,77,41,30.30,30.12,9,1,9,0.00
2013-10-16,66,50,38,51,44,36,98,83,53,30.16,30.10,7,0,7,0.00
2013-10-17,62,48,38,53,45,37,98,91,69,30.23,30.13,8,0,8,0.01
2013-10-18,69,50,37,53,45,36,98,84,52,30.18,30.07,9,0,9,0.00
2013-10-19,69,50,37,54,46,36,98,86,57,30.16,30.09,1,0,1,0.01
2013-10-20,63,50,41,51,46,40,98,89,62,30.15,30.05,1,0,2,0.00
2013-10-21,66,49,40,55,46,39,98,91,63,30.09,29.97,1,0,1,0.01
2013-10-22,72,52,40,57,48,38,98,87,55,30.06,29.95,0,0,0,0.00
2013-10-23,70,52,41,58,48,40,100,90,60,30.01,29.93,6,0,6,0.01
2013-10-24,61,49,44,55,48,43,98,94,77,30.09,29.98,6,0,6,0.01
2013-10-25,51,49,43,50,48,42,98,97,95,30.27,30.09,7,0,7,0.01
2013-10-26,52,50,48,49,48,47,96,94,89,30.28,30.22,8,0,8,0.00
2013-10-27,54,49,45,52,47,43,96,91,83,30.11,29.82,13,2,13,0.14
2013-10-28,59,48,39,46,40,33,97,77,46,29.91,29.79,13,1,14,0.01
2013-10-29,60,42,30,42,35,28,96,79,42,30.08,29.91,6,0,6,0.00
2013-10-30,60,46,35,47,40,33,96,81,45,30.19,30.07,9,1,9,0.01
2013-10-31,54,52,45,53,49,43,97,91,83,30.27,30.17,8,1,8,0.05
2013-11-1,57,49,42,52,48,41,98,94,81,30.28,29.92,6,0,6,0.01
2013-11-2,55,50,44,51,47,41,97,88,69,30.10,29.79,19,4,20,0.58
2013-11-3,49,44,42,45,42,40,96,93,86,30.19,30.09,10,2,11,0.05
2013-11-5,53,52,51,52,52,51,97,96,95,30.25,30.17,8,2,9,0.17
2013-11-6,56,53,52,55,52,51,98,98,97,30.28,30.09,3,0,3,0.20
2013-11-7,55,51,47,55,49,45,99,92,78,30.16,29.92,14,3,14,0.39
2013-11-8,51,48,42,49,46,41,97,93,86,30.22,30.11,9,1,9,0.06
2013-11-9,48,44,39,46,43,38,98,96,91,30.12,30.04,4,0,4,0.01
2013-11-10,58,46,42,52,45,41,98,95,80,30.10,30.04,4,0,5,0.00
2013-11-11,50,46,43,50,45,43,99,98,96,30.15,30.02,5,0,5,0.01
2013-11-12,57,51,45,56,50,44,99,97,93,30.43,30.09,9,1,9,0.36
2013-11-13,51,49,47,50,48,46,98,97,93,30.48,30.30,8,1,8,0.01
2013-11-14,50,47,46,47,46,45,98,95,87,30.30,30.11,7,1,8,0.01
2013-11-15,48,45,42,45,44,42,98,95,89,30.12,29.63,21,3,21,0.08
2013-11-16,50,47,45,46,44,42,97,89,77,29.89,29.59,21,3,21,0.06
2013-11-17,54,49,46,47,45,43,96,85,76,30.03,29.89,17,4,17,0.03
2013-11-18,53,50,48,50,47,44,96,89,78,30.00,29.76,14,3,14,0.39
2013-11-19,54,48,38,53,47,33,97,93,80,30.02,29.73,16,3,16,0.39
2013-11-20,46,37,31,38,32,24,94,82,65,30.37,30.02,9,3,18,0.00
2013-11-21,47,35,27,27,22,19,81,61,35,30.56,30.36,14,2,17,0.00
2013-11-22,49,35,24,30,24,20,92,67,44,30.56,30.37,12,1,12,0.00
2013-11-23,52,38,30,31,26,22,86,62,41,30.38,30.16,10,1,11,0.00
2013-11-24,51,36,26,37,30,24,95,82,52,30.29,30.16,5,0,5,0.00
2013-11-25,51,36,27,40,32,25,97,87,59,30.36,30.29,5,0,5,0.00
2013-11-26,50,37,28,41,34,27,97,88,65,30.30,30.07,5,0,5,0.01
2013-11-27,50,38,30,39,34,30,97,88,60,30.07,29.96,5,0,5,0.00
2013-11-28,52,37,28,40,33,27,97,87,60,30.21,30.02,5,0,5,0.00
2013-11-29,46,37,28,42,35,26,97,93,85,30.38,30.21,5,0,5,0.01
2013-11-30,50,44,39,46,42,38,96,92,82,30.41,30.26,7,1,8,0.01
2013-12-1,54,52,48,53,51,46,97,95,91,30.26,29.97,23,7,26,1.05
2013-12-2,52,43,36,51,41,34,100,91,72,30.07,29.95,15,1,17,0.46
2013-12-3,44,35,28,38,31,21,98,86,60,30.27,30.06,10,1,10,0.01
2013-12-4,38,29,22,25,21,18,92,75,45,30.34,30.26,8,1,8,0.00
2013-12-5,34,24,17,23,20,15,93,82,63,30.31,30.17,5,0,5,0.00
2013-12-6,28,26,24,26,23,18,99,88,72,30.17,29.94,9,1,9,0.00
2013-12-7,30,22,12,18,12,9,87,68,44,30.44,30.06,11,2,13,0.08
2013-12-8,28,20,12,18,14,10,91,80,57,30.63,30.52,5,1,5,0.01
2013-12-9,28,25,12,24,21,10,93,83,76,30.66,30.56,9,1,10,0.00
2013-12-10,34,27,21,29,24,19,94,89,80,30.57,30.42,5,0,5,0.00
2013-12-11,29,23,19,28,22,17,96,95,93,30.42,30.24,4,0,4,0.00
2013-12-12,43,30,17,42,28,15,100,96,93,30.25,30.13,7,1,8,0.20
2013-12-13,51,42,35,48,41,34,98,96,88,30.45,30.24,5,0,6,0.13
2013-12-14,42,38,33,41,37,33,98,97,95,30.49,30.39,8,1,8,0.00
2013-12-15,47,41,35,46,40,35,98,97,94,30.49,30.43,5,0,5,0.11
2013-12-16,43,41,39,42,40,38,98,98,98,30.47,30.25,8,1,8,0.01
2013-12-17,39,36,35,38,36,34,98,98,98,30.26,30.19,7,1,7,0.00
2013-12-18,40,37,33,40,36,32,99,98,96,30.21,30.06,15,0,15,0.05
2013-12-19,35,32,29,33,32,29,98,96,93,30.33,30.14,7,1,8,0.01
2013-12-20,45,38,32,45,36,31,98,96,89,30.26,29.95,16,3,16,0.13
2013-12-21,52,47,45,48,46,44,100,95,86,30.26,29.99,10,1,11,0.09
2013-12-22,53,48,42,50,47,41,98,96,88,30.37,30.25,9,2,9,0.03
2013-12-23,50,45,34,50,44,33,100,97,94,30.55,30.34,15,2,15,0.26
2013-12-24,41,35,31,40,34,31,99,98,97,30.61,30.50,7,1,8,0.01
2013-12-25,36,34,32,36,34,32,99,98,98,30.50,30.41,5,0,5,0.01
2013-12-26,35,32,30,34,32,30,99,98,98,30.42,30.26,5,0,5,0.00
2013-12-27,37,33,30,36,33,30,100,99,98,30.41,30.23,6,1,6,0.00
2013-12-28,41,37,32,41,36,32,100,97,89,30.52,30.41,6,1,6,0.01
2013-12-29,39,36,34,37,36,32,98,96,94,30.48,30.30,7,0,7,0.00
2013-12-30,41,37,35,40,37,34,99,97,93,30.30,30.21,7,1,7,0.00
2013-12-31,52,42,36,44,40,35,100,93,74,30.35,30.25,5,0,5,0.01
2014-1-1,41,39,37,40,38,36,99,98,97,30.37,30.27,4,0,4,0.01
2014-1-2,44,39,34,44,38,34,100,99,97,30.28,30.08,6,1,6,0.00